Time;durP1;ratioP1;P1;durP2;ratioP2;P2;SDS_P1;SDS_P2;PMS_P1;PMS_P2;Temp;Humidity;BMP_temperature;BMP_pressure;BME280_temperature;BME280_humidity;BME280_pressure;Samples;Min_cycle;Max_cycle;Signal;HPM_P1;HPM_P2
2023/09/22 00:00:15;;;;;;;1.23;1.05;;;;;;;;;;5015663;28;20214;-81
2023/09/22 00:02:46;;;;;;;0.82;0.82;;;;;;;;;;5016130;28;20227;-79
2023/09/22 00:05:14;;;;;;;1.13;1.02;;;;;;;;;;5015479;28;20610;-79
2023/09/22 00:07:42;;;;;;;0.88;0.88;;;;;;;;;;5015103;28;20213;-78
2023/09/22 00:10:12;;;;;;;1.20;1.00;;;;;;;;;;4996934;28;20223;-79
2023/09/22 00:12:40;;;;;;;0.82;0.82;;;;;;;;;;5016486;28;20224;-80
2023/09/22 00:15:09;;;;;;;3.00;1.00;;;;;;;;;;5015576;28;20254;-77
2023/09/22 00:17:36;;;;;;;1.00;0.80;;;;;;;;;;5015599;28;20204;-79
2023/09/22 00:20:08;;;;;;;1.25;1.05;;;;;;;;;;4997503;28;20678;-77
2023/09/22 00:22:35;;;;;;;0.98;0.98;;;;;;;;;;4997562;28;20258;-79
2023/09/22 00:25:03;;;;;;;0.90;0.90;;;;;;;;;;5015173;28;20258;-77
2023/09/22 00:27:31;;;;;;;0.88;0.88;;;;;;;;;;5015578;28;20219;-80
2023/09/22 00:29:58;;;;;;;1.20;0.90;;;;;;;;;;5006850;28;20221;-80
2023/09/22 00:32:26;;;;;;;1.88;1.23;;;;;;;;;;5003707;28;20210;-80
2023/09/22 00:34:53;;;;;;;0.90;0.90;;;;;;;;;;5011979;28;20231;-78
2023/09/22 00:37:21;;;;;;;2.30;0.80;;;;;;;;;;4999610;28;20204;-79
2023/09/22 00:39:48;;;;;;;3.00;0.90;;;;;;;;;;5007541;28;20206;-79
2023/09/22 00:42:15;;;;;;;0.80;0.80;;;;;;;;;;5007276;28;20910;-79
2023/09/22 00:44:43;;;;;;;1.50;1.02;;;;;;;;;;5001297;28;20220;-79
2023/09/22 00:47:14;;;;;;;1.23;0.90;;;;;;;;;;5011918;28;20600;-80
2023/09/22 00:49:45;;;;;;;1.15;1.05;;;;;;;;;;4996001;28;20314;-81
2023/09/22 00:52:14;;;;;;;0.90;0.90;;;;;;;;;;5006239;28;20924;-79
2023/09/22 00:54:41;;;;;;;1.05;0.93;;;;;;;;;;5008886;28;20223;-80
2023/09/22 00:57:08;;;;;;;1.10;0.97;;;;;;;;;;5013893;28;20200;-81
2023/09/22 00:59:35;;;;;;;1.02;0.90;;;;;;;;;;5015241;28;20207;-80
2023/09/22 01:02:03;;;;;;;1.25;1.00;;;;;;;;;;4995920;28;20210;-80
2023/09/22 01:04:31;;;;;;;1.45;1.15;;;;;;;;;;5010695;28;20223;-78
2023/09/22 01:06:58;;;;;;;1.77;1.10;;;;;;;;;;5017069;28;20199;-80
2023/09/22 01:09:26;;;;;;;1.20;1.00;;;;;;;;;;5018480;28;20234;-79
2023/09/22 01:11:53;;;;;;;1.33;0.82;;;;;;;;;;5002513;28;20197;-79
2023/09/22 01:14:21;;;;;;;2.43;1.00;;;;;;;;;;5018632;28;20250;-79
2023/09/22 01:16:50;;;;;;;0.80;0.80;;;;;;;;;;5011614;28;20663;-78
2023/09/22 01:19:19;;;;;;;1.10;1.00;;;;;;;;;;5009539;28;20204;-78
2023/09/22 01:21:48;;;;;;;0.93;0.93;;;;;;;;;;5014915;28;20588;-78
2023/09/22 01:24:15;;;;;;;1.10;0.93;;;;;;;;;;5009873;28;20608;-79
2023/09/22 01:26:43;;;;;;;0.83;0.83;;;;;;;;;;5017790;28;20204;-78
2023/09/22 01:29:10;;;;;;;2.80;1.10;;;;;;;;;;5015466;28;20561;-79
2023/09/22 01:31:38;;;;;;;2.20;1.30;;;;;;;;;;5004408;28;20204;-79
2023/09/22 01:34:08;;;;;;;2.40;1.30;;;;;;;;;;5010022;28;20251;-78
2023/09/22 01:36:35;;;;;;;2.77;1.10;;;;;;;;;;5020160;28;20279;-81
2023/09/22 01:39:04;;;;;;;3.00;1.30;;;;;;;;;;5010566;28;20205;-81
2023/09/22 01:41:35;;;;;;;0.90;0.90;;;;;;;;;;4995575;28;20212;-79
2023/09/22 01:44:03;;;;;;;1.80;1.00;;;;;;;;;;5014700;28;20713;-79
2023/09/22 01:46:30;;;;;;;1.93;1.13;;;;;;;;;;5004899;28;20207;-80
2023/09/22 01:48:57;;;;;;;1.43;1.13;;;;;;;;;;5017243;28;20676;-80
2023/09/22 01:51:25;;;;;;;1.50;1.00;;;;;;;;;;5010842;28;20574;-79
2023/09/22 01:53:55;;;;;;;1.20;1.10;;;;;;;;;;5017537;28;20258;-80
2023/09/22 01:56:22;;;;;;;1.70;1.10;;;;;;;;;;5012786;28;20207;-80
2023/09/22 01:58:49;;;;;;;1.40;1.10;;;;;;;;;;5008087;28;20204;-80
2023/09/22 02:01:17;;;;;;;1.43;1.13;;;;;;;;;;4985736;28;20213;-80
2023/09/22 02:03:45;;;;;;;3.10;1.10;;;;;;;;;;5017892;28;20230;-80
2023/09/22 02:06:13;;;;;;;1.40;1.07;;;;;;;;;;5009836;28;20224;-80
2023/09/22 02:08:40;;;;;;;4.53;1.10;;;;;;;;;;5017134;28;20215;-80
2023/09/22 02:11:10;;;;;;;1.90;1.00;;;;;;;;;;5008891;28;20273;-80
2023/09/22 02:13:37;;;;;;;1.13;1.03;;;;;;;;;;5003089;28;20427;-79
2023/09/22 02:16:05;;;;;;;1.30;1.20;;;;;;;;;;5016431;28;20624;-78
2023/09/22 02:18:32;;;;;;;2.50;1.38;;;;;;;;;;5004282;28;20204;-79
2023/09/22 02:21:00;;;;;;;1.27;1.20;;;;;;;;;;5017102;28;20207;-77
2023/09/22 02:23:27;;;;;;;2.00;0.90;;;;;;;;;;5004756;28;20231;-78
2023/09/22 02:25:54;;;;;;;2.20;1.13;;;;;;;;;;5015513;28;20655;-77
2023/09/22 02:28:23;;;;;;;1.40;1.10;;;;;;;;;;5010549;28;20730;-78
2023/09/22 02:30:50;;;;;;;0.87;0.87;;;;;;;;;;5009105;28;20227;-81
2023/09/22 02:33:18;;;;;;;1.00;1.00;;;;;;;;;;5009510;28;20223;-81
2023/09/22 02:35:51;;;;;;;1.15;0.90;;;;;;;;;;5075792;28;20677;-77
2023/09/22 02:38:19;;;;;;;1.10;1.03;;;;;;;;;;5069832;28;20730;-79
2023/09/22 02:40:46;;;;;;;1.10;1.00;;;;;;;;;;5051771;28;20776;-78
2023/09/22 02:43:13;;;;;;;1.50;0.93;;;;;;;;;;5040631;28;20259;-77
2023/09/22 02:45:40;;;;;;;1.02;1.02;;;;;;;;;;5035814;28;20207;-76
2023/09/22 02:48:08;;;;;;;1.08;0.88;;;;;;;;;;5033322;28;20674;-77
2023/09/22 02:50:35;;;;;;;1.50;0.90;;;;;;;;;;5029375;28;20273;-77
2023/09/22 02:53:04;;;;;;;1.07;0.97;;;;;;;;;;5079121;28;20210;-78
2023/09/22 02:55:32;;;;;;;1.17;1.13;;;;;;;;;;5032049;28;20252;-78
2023/09/22 02:57:59;;;;;;;0.90;0.90;;;;;;;;;;5038659;28;20198;-79
2023/09/22 03:00:27;;;;;;;1.92;0.90;;;;;;;;;;5052678;28;20836;-78
2023/09/22 03:02:54;;;;;;;1.00;1.00;;;;;;;;;;5057424;28;20236;-77
2023/09/22 03:05:22;;;;;;;1.80;1.00;;;;;;;;;;5062975;28;20224;-78
2023/09/22 03:07:50;;;;;;;1.07;1.07;;;;;;;;;;5059836;28;20209;-77
2023/09/22 03:10:17;;;;;;;2.73;1.13;;;;;;;;;;5066341;28;20225;-77
2023/09/22 03:12:45;;;;;;;1.00;0.80;;;;;;;;;;5062940;28;20209;-77
2023/09/22 03:15:13;;;;;;;3.53;0.87;;;;;;;;;;5058734;28;20254;-79
2023/09/22 03:17:42;;;;;;;0.90;0.90;;;;;;;;;;5058177;28;20206;-78
2023/09/22 03:20:13;;;;;;;1.10;1.00;;;;;;;;;;5056618;28;20245;-78
2023/09/22 03:22:41;;;;;;;1.53;0.90;;;;;;;;;;5064567;28;20247;-76
2023/09/22 03:25:09;;;;;;;1.00;1.00;;;;;;;;;;5061838;28;20228;-79
2023/09/22 03:27:37;;;;;;;2.10;1.00;;;;;;;;;;5055906;28;20206;-79
2023/09/22 03:30:08;;;;;;;2.83;0.90;;;;;;;;;;5063434;28;20240;-79
2023/09/22 03:32:36;;;;;;;1.00;1.00;;;;;;;;;;5055317;28;20234;-78
2023/09/22 03:35:06;;;;;;;2.30;1.00;;;;;;;;;;5062737;28;20233;-78
2023/09/22 03:37:36;;;;;;;1.30;1.20;;;;;;;;;;5054766;28;20205;-78
2023/09/22 03:40:13;;;;;;;1.00;1.00;;;;;;;;;;5065597;28;20309;-76
2023/09/22 03:42:43;;;;;;;0.97;0.97;;;;;;;;;;5061139;28;20202;-78
2023/09/22 03:45:11;;;;;;;1.30;1.20;;;;;;;;;;5063872;28;20276;-78
2023/09/22 03:47:39;;;;;;;1.20;1.10;;;;;;;;;;5042765;28;20203;-78
2023/09/22 03:50:07;;;;;;;1.60;1.20;;;;;;;;;;5042302;28;20708;-79
2023/09/22 03:52:36;;;;;;;1.17;1.07;;;;;;;;;;5045603;28;20213;-79
2023/09/22 03:55:04;;;;;;;1.67;1.37;;;;;;;;;;5044917;28;20226;-78
2023/09/22 03:57:31;;;;;;;3.07;1.17;;;;;;;;;;5043358;28;20579;-78
2023/09/22 03:59:58;;;;;;;1.27;1.17;;;;;;;;;;5049489;28;20236;-78
2023/09/22 04:02:27;;;;;;;1.30;1.20;;;;;;;;;;5052121;28;20206;-78
2023/09/22 04:04:54;;;;;;;1.70;1.20;;;;;;;;;;5037494;28;20655;-78
2023/09/22 04:07:22;;;;;;;2.10;1.40;;;;;;;;;;5052299;28;20209;-78
2023/09/22 04:09:49;;;;;;;1.37;1.30;;;;;;;;;;5049684;28;20221;-78
2023/09/22 04:12:16;;;;;;;1.27;1.17;;;;;;;;;;5049880;28;20210;-79
2023/09/22 04:14:44;;;;;;;1.40;1.30;;;;;;;;;;5052292;28;20225;-78
2023/09/22 04:17:11;;;;;;;2.00;1.30;;;;;;;;;;5041153;28;20825;-78
2023/09/22 04:19:39;;;;;;;1.33;1.23;;;;;;;;;;5041722;28;20234;-77
2023/09/22 04:22:08;;;;;;;1.43;1.33;;;;;;;;;;5050460;28;20198;-77
2023/09/22 04:24:37;;;;;;;1.20;1.17;;;;;;;;;;5042416;28;20249;-77
2023/09/22 04:27:08;;;;;;;2.57;1.30;;;;;;;;;;5047404;28;20211;-77
2023/09/22 04:29:35;;;;;;;2.83;1.43;;;;;;;;;;5040251;28;20649;-78
2023/09/22 04:32:06;;;;;;;2.10;1.50;;;;;;;;;;5051860;28;20217;-76
2023/09/22 04:34:34;;;;;;;1.83;1.73;;;;;;;;;;5032227;28;20716;-78
2023/09/22 04:37:05;;;;;;;1.83;1.60;;;;;;;;;;5039245;28;20199;-77
2023/09/22 04:39:34;;;;;;;1.57;1.43;;;;;;;;;;5039312;28;20220;-78
2023/09/22 04:42:02;;;;;;;4.00;1.40;;;;;;;;;;5051406;28;20209;-77
2023/09/22 04:44:30;;;;;;;1.87;1.30;;;;;;;;;;5049101;28;20209;-77
2023/09/22 04:46:59;;;;;;;1.57;1.27;;;;;;;;;;5050972;28;20673;-78
2023/09/22 04:49:27;;;;;;;1.13;1.13;;;;;;;;;;5049673;28;20209;-78
2023/09/22 04:51:56;;;;;;;1.40;1.20;;;;;;;;;;5052104;28;20272;-78
2023/09/22 04:54:24;;;;;;;1.40;1.30;;;;;;;;;;5049157;28;20226;-78
2023/09/22 04:56:54;;;;;;;1.47;1.37;;;;;;;;;;5045923;28;20649;-78
2023/09/22 04:59:21;;;;;;;1.40;1.30;;;;;;;;;;5039574;28;20194;-77
2023/09/22 05:01:49;;;;;;;1.40;1.30;;;;;;;;;;5044131;28;20226;-77
2023/09/22 05:04:16;;;;;;;2.40;1.60;;;;;;;;;;5043272;28;20252;-77
2023/09/22 05:06:44;;;;;;;1.63;1.50;;;;;;;;;;5051379;28;20206;-78
2023/09/22 05:09:11;;;;;;;1.90;1.70;;;;;;;;;;5049134;28;20293;-77
2023/09/22 05:11:39;;;;;;;2.50;2.20;;;;;;;;;;5044794;28;20248;-77
2023/09/22 05:14:06;;;;;;;2.03;1.83;;;;;;;;;;5037409;28;20207;-77
2023/09/22 05:16:33;;;;;;;2.10;1.93;;;;;;;;;;5048849;28;20221;-76
2023/09/22 05:19:00;;;;;;;2.77;2.13;;;;;;;;;;5047484;28;20213;-77
2023/09/22 05:21:28;;;;;;;2.90;2.57;;;;;;;;;;5047996;28;20252;-76
2023/09/22 05:23:55;;;;;;;4.57;2.50;;;;;;;;;;5026587;28;20249;-77
2023/09/22 05:26:22;;;;;;;2.70;2.50;;;;;;;;;;5049703;28;20214;-78
2023/09/22 05:28:50;;;;;;;3.13;2.63;;;;;;;;;;5044963;28;20214;-78
2023/09/22 05:31:19;;;;;;;2.53;2.33;;;;;;;;;;5044452;28;20309;-79
2023/09/22 05:33:46;;;;;;;2.67;2.47;;;;;;;;;;5050823;28;20692;-78
2023/09/22 05:36:14;;;;;;;3.70;2.90;;;;;;;;;;5047421;28;21687;-78
2023/09/22 05:38:41;;;;;;;4.30;3.20;;;;;;;;;;5050408;28;20206;-78
2023/09/22 05:41:09;;;;;;;3.20;3.00;;;;;;;;;;5050417;28;20668;-79
2023/09/22 05:43:38;;;;;;;3.60;3.30;;;;;;;;;;5049561;28;20289;-78
2023/09/22 05:46:06;;;;;;;4.87;3.70;;;;;;;;;;5044951;28;20221;-77
2023/09/22 05:48:33;;;;;;;4.07;3.40;;;;;;;;;;5045800;28;20203;-78
2023/09/22 05:51:01;;;;;;;3.57;3.10;;;;;;;;;;5041813;28;20222;-77
2023/09/22 05:53:28;;;;;;;3.40;3.10;;;;;;;;;;5048323;28;20206;-78
2023/09/22 05:56:06;;;;;;;3.30;2.97;;;;;;;;;;5046131;28;20237;-78
2023/09/22 05:58:37;;;;;;;2.83;2.63;;;;;;;;;;5050200;28;20287;-77
2023/09/22 06:01:11;;;;;;;3.73;2.77;;;;;;;;;;5044930;28;20222;-77
2023/09/22 06:03:39;;;;;;;3.43;3.13;;;;;;;;;;5041552;28;20202;-78
2023/09/22 06:06:10;;;;;;;2.77;2.57;;;;;;;;;;5046007;28;20626;-79
2023/09/22 06:08:39;;;;;;;3.03;2.73;;;;;;;;;;5049717;28;20203;-76
2023/09/22 06:11:07;;;;;;;2.90;2.60;;;;;;;;;;5039069;28;20236;-79
2023/09/22 06:13:35;;;;;;;3.00;2.80;;;;;;;;;;5047297;28;20213;-77
2023/09/22 06:16:02;;;;;;;3.43;3.10;;;;;;;;;;5047569;28;20222;-78
2023/09/22 06:18:30;;;;;;;3.07;2.70;;;;;;;;;;5047012;28;20253;-77
2023/09/22 06:20:59;;;;;;;3.50;2.90;;;;;;;;;;5049510;28;20280;-79
2023/09/22 06:23:27;;;;;;;3.63;3.10;;;;;;;;;;5049629;28;20263;-77
2023/09/22 06:26:00;;;;;;;4.17;2.80;;;;;;;;;;5044436;28;20210;-78
2023/09/22 06:28:27;;;;;;;3.43;3.13;;;;;;;;;;5049654;28;20267;-78
2023/09/22 06:30:58;;;;;;;4.67;2.90;;;;;;;;;;5048856;28;20230;-78
2023/09/22 06:33:27;;;;;;;2.93;2.73;;;;;;;;;;5047381;28;20611;-79
2023/09/22 06:35:58;;;;;;;4.00;3.00;;;;;;;;;;5044223;28;20230;-78
2023/09/22 06:38:25;;;;;;;2.70;2.50;;;;;;;;;;5043480;28;20210;-78
2023/09/22 06:40:55;;;;;;;3.10;2.80;;;;;;;;;;5050118;28;20222;-79
2023/09/22 06:43:26;;;;;;;3.13;2.80;;;;;;;;;;5038614;28;20232;-80
2023/09/22 06:45:56;;;;;;;2.60;2.50;;;;;;;;;;5049909;28;20202;-78
2023/09/22 06:48:26;;;;;;;2.73;2.53;;;;;;;;;;5046363;28;20210;-77
2023/09/22 06:51:00;;;;;;;2.20;2.10;;;;;;;;;;5044959;28;20232;-76
2023/09/22 06:53:28;;;;;;;2.00;1.90;;;;;;;;;;5042569;28;20213;-77
2023/09/22 06:56:11;;;;;;;2.10;2.00;;;;;;;;;;5044086;28;20236;-78
2023/09/22 06:58:40;;;;;;;1.90;1.80;;;;;;;;;;5049492;28;20230;-77
2023/09/22 07:01:12;;;;;;;1.73;1.60;;;;;;;;;;5045543;28;20229;-78
2023/09/22 07:03:44;;;;;;;1.83;1.73;;;;;;;;;;5036549;28;20202;-77
2023/09/22 07:06:14;;;;;;;2.10;2.00;;;;;;;;;;5047223;28;20260;-78
2023/09/22 07:08:45;;;;;;;1.90;1.80;;;;;;;;;;5048104;28;20248;-79
2023/09/22 07:11:14;;;;;;;1.60;1.50;;;;;;;;;;5045998;28;20316;-77
2023/09/22 07:13:41;;;;;;;1.40;1.40;;;;;;;;;;5043188;28;20207;-77
2023/09/22 07:16:09;;;;;;;1.87;1.27;;;;;;;;;;5044278;28;20222;-78
2023/09/22 07:18:36;;;;;;;2.47;1.30;;;;;;;;;;5045996;28;20217;-78
2023/09/22 07:21:07;;;;;;;1.63;1.53;;;;;;;;;;5055131;22;20227;-74
2023/09/22 07:23:34;;;;;;;1.33;1.33;;;;;;;;;;5029923;28;20199;-77
2023/09/22 07:26:03;;;;;;;1.50;1.40;;;;;;;;;;5021748;28;20207;-78
2023/09/22 07:28:31;;;;;;;1.70;1.27;;;;;;;;;;5032637;28;20206;-76
2023/09/22 07:30:59;;;;;;;1.10;1.10;;;;;;;;;;5030492;28;20223;-76
2023/09/22 07:33:31;;;;;;;1.20;1.20;;;;;;;;;;5034020;28;20215;-76
2023/09/22 07:35:59;;;;;;;1.40;1.30;;;;;;;;;;5032910;28;20691;-76
2023/09/22 07:38:27;;;;;;;1.30;1.20;;;;;;;;;;5029616;28;20255;-77
2023/09/22 07:40:54;;;;;;;1.00;1.00;;;;;;;;;;5033250;28;20226;-77
2023/09/22 07:43:28;;;;;;;1.00;1.00;;;;;;;;;;5026532;28;20657;-76
2023/09/22 07:45:56;;;;;;;2.78;1.30;;;;;;;;;;5033444;28;20237;-77
2023/09/22 07:48:24;;;;;;;1.10;1.10;;;;;;;;;;5032950;28;20207;-77
2023/09/22 07:50:52;;;;;;;1.20;1.20;;;;;;;;;;5032829;28;20253;-77
2023/09/22 07:53:20;;;;;;;1.03;1.03;;;;;;;;;;5042152;28;20210;-77
2023/09/22 07:55:48;;;;;;;0.93;0.93;;;;;;;;;;5022571;28;20219;-77
2023/09/22 07:58:15;;;;;;;1.10;1.10;;;;;;;;;;5025415;28;20261;-77
2023/09/22 08:00:46;;;;;;;1.52;1.00;;;;;;;;;;5029270;28;20261;-76
2023/09/22 08:03:14;;;;;;;1.07;1.00;;;;;;;;;;5033065;28;20631;-77
2023/09/22 08:05:42;;;;;;;1.10;1.10;;;;;;;;;;5033182;28;20253;-76
2023/09/22 08:08:10;;;;;;;1.30;1.20;;;;;;;;;;5032905;28;20207;-78
2023/09/22 08:10:41;;;;;;;1.10;1.10;;;;;;;;;;5029135;28;20207;-77
2023/09/22 08:13:08;;;;;;;1.07;1.07;;;;;;;;;;5033668;28;20203;-77
2023/09/22 08:15:37;;;;;;;1.17;1.10;;;;;;;;;;5027879;28;20231;-76
2023/09/22 08:18:10;;;;;;;2.00;1.20;;;;;;;;;;5032727;28;20195;-77
2023/09/22 08:20:38;;;;;;;1.50;1.27;;;;;;;;;;5031891;28;20202;-78
2023/09/22 08:23:05;;;;;;;0.90;0.90;;;;;;;;;;5025087;28;20204;-78
2023/09/22 08:25:34;;;;;;;1.20;1.20;;;;;;;;;;5022732;28;20217;-76
2023/09/22 08:28:02;;;;;;;1.30;1.20;;;;;;;;;;5029355;28;20206;-78
2023/09/22 08:30:30;;;;;;;1.48;1.38;;;;;;;;;;5030128;28;20243;-77
2023/09/22 08:32:58;;;;;;;2.88;1.50;;;;;;;;;;5030642;28;20750;-77
2023/09/22 08:35:26;;;;;;;1.52;1.40;;;;;;;;;;5032772;28;20230;-76
2023/09/22 08:37:54;;;;;;;2.78;1.23;;;;;;;;;;5024486;28;20281;-77
2023/09/22 08:40:21;;;;;;;1.50;1.40;;;;;;;;;;5024861;28;20207;-77
2023/09/22 08:42:51;;;;;;;1.70;1.60;;;;;;;;;;5026404;28;20276;-75
2023/09/22 08:45:20;;;;;;;1.98;1.52;;;;;;;;;;5031872;28;20253;-77
2023/09/22 08:47:47;;;;;;;1.70;1.55;;;;;;;;;;5031586;28;20234;-77
2023/09/22 08:50:16;;;;;;;1.50;1.40;;;;;;;;;;5026770;28;20228;-77
2023/09/22 08:52:51;;;;;;;1.67;1.57;;;;;;;;;;5023337;28;20883;-77
2023/09/22 08:55:19;;;;;;;2.28;1.60;;;;;;;;;;5028882;28;20238;-78
2023/09/22 08:57:48;;;;;;;4.18;1.48;;;;;;;;;;5017776;28;20203;-77
2023/09/22 09:00:20;;;;;;;2.42;1.30;;;;;;;;;;5029919;28;20264;-76
2023/09/22 09:02:49;;;;;;;1.33;1.23;;;;;;;;;;5031219;28;20624;-77
2023/09/22 09:05:24;;;;;;;1.45;1.35;;;;;;;;;;5031416;28;20286;-76
2023/09/22 09:07:52;;;;;;;1.50;1.40;;;;;;;;;;5031439;28;20210;-76
2023/09/22 09:10:25;;;;;;;1.45;1.33;;;;;;;;;;5031151;28;20203;-77
2023/09/22 09:12:53;;;;;;;1.20;1.10;;;;;;;;;;5012538;28;20338;-76
2023/09/22 09:15:22;;;;;;;1.10;1.10;;;;;;;;;;5028729;28;20212;-77
2023/09/22 09:18:06;;;;;;;1.20;1.20;;;;;;;;;;5030018;28;20253;-76
2023/09/22 09:20:37;;;;;;;1.27;1.17;;;;;;;;;;5026501;28;20294;-76
2023/09/22 09:23:12;;;;;;;2.15;1.42;;;;;;;;;;5023636;28;20199;-75
2023/09/22 09:25:40;;;;;;;1.48;1.20;;;;;;;;;;5022983;28;20208;-76
2023/09/22 09:28:08;;;;;;;1.10;1.10;;;;;;;;;;5028960;28;20290;-76
2023/09/22 09:30:35;;;;;;;2.28;1.23;;;;;;;;;;5030763;28;20245;-76
2023/09/22 09:33:12;;;;;;;1.13;1.13;;;;;;;;;;5029893;28;20585;-76
2023/09/22 09:35:41;;;;;;;1.48;1.00;;;;;;;;;;5030491;28;20218;-76
2023/09/22 09:38:18;;;;;;;1.30;0.85;;;;;;;;;;5032014;28;20199;-77
2023/09/22 09:40:45;;;;;;;1.58;1.48;;;;;;;;;;5031828;28;20230;-77
2023/09/22 09:43:13;;;;;;;1.83;1.67;;;;;;;;;;5023062;28;20582;-76
2023/09/22 09:45:48;;;;;;;2.97;1.70;;;;;;;;;;5026400;28;20237;-76
2023/09/22 09:48:17;;;;;;;1.65;1.58;;;;;;;;;;5025247;28;20579;-76
2023/09/22 09:50:46;;;;;;;2.08;1.90;;;;;;;;;;5025463;28;20233;-77
2023/09/22 09:53:16;;;;;;;1.95;1.75;;;;;;;;;;5027056;28;20290;-76
2023/09/22 09:55:45;;;;;;;1.25;1.15;;;;;;;;;;5018700;28;20223;-77
2023/09/22 09:58:13;;;;;;;1.08;1.08;;;;;;;;;;5021797;28;20210;-76
2023/09/22 10:00:42;;;;;;;1.20;1.10;;;;;;;;;;5027299;28;20199;-77
2023/09/22 10:03:12;;;;;;;1.20;1.10;;;;;;;;;;5031692;28;20199;-77
2023/09/22 10:05:41;;;;;;;1.30;1.20;;;;;;;;;;5032038;28;20226;-77
2023/09/22 10:08:08;;;;;;;2.15;1.58;;;;;;;;;;5025985;28;20206;-76
2023/09/22 10:10:38;;;;;;;1.10;1.00;;;;;;;;;;5022053;28;20277;-76
2023/09/22 10:13:05;;;;;;;1.00;1.00;;;;;;;;;;5024945;28;20222;-77
2023/09/22 10:15:52;;;;;;;1.20;1.20;;;;;;;;;;5028439;28;20306;-76
2023/09/22 10:18:20;;;;;;;1.58;1.20;;;;;;;;;;5028681;28;20218;-76
2023/09/22 10:20:48;;;;;;;1.75;1.52;;;;;;;;;;5028671;28;20627;-75
2023/09/22 10:23:17;;;;;;;1.48;1.38;;;;;;;;;;5030037;28;20218;-76
2023/09/22 10:26:03;;;;;;;1.20;1.10;;;;;;;;;;5022149;28;20677;-77
2023/09/22 10:28:31;;;;;;;1.15;1.15;;;;;;;;;;5020107;28;20205;-77
2023/09/22 10:30:58;;;;;;;2.53;1.80;;;;;;;;;;5030818;28;20287;-76
2023/09/22 10:33:25;;;;;;;1.30;1.10;;;;;;;;;;5031346;28;20203;-76
2023/09/22 10:35:57;;;;;;;1.00;1.00;;;;;;;;;;5031398;28;20241;-77
2023/09/22 10:38:25;;;;;;;1.27;0.90;;;;;;;;;;5025931;28;20207;-77
2023/09/22 10:41:01;;;;;;;0.98;0.88;;;;;;;;;;5021743;28;20226;-78
2023/09/22 10:43:29;;;;;;;1.20;1.10;;;;;;;;;;5024018;28;20668;-77
2023/09/22 10:45:56;;;;;;;0.67;0.67;;;;;;;;;;5030922;28;20237;-77
2023/09/22 10:48:24;;;;;;;0.88;0.88;;;;;;;;;;5023137;28;20277;-77
2023/09/22 10:50:53;;;;;;;0.85;0.85;;;;;;;;;;5030455;28;20235;-78
2023/09/22 10:53:21;;;;;;;0.80;0.80;;;;;;;;;;5021098;28;20261;-77
2023/09/22 10:55:49;;;;;;;0.63;0.63;;;;;;;;;;5030031;28;20859;-77
2023/09/22 10:58:19;;;;;;;0.82;0.70;;;;;;;;;;5025262;28;20205;-77
2023/09/22 11:01:05;;;;;;;0.80;0.80;;;;;;;;;;5030852;28;20305;-77
2023/09/22 11:03:33;;;;;;;0.70;0.70;;;;;;;;;;5025596;28;20241;-76
2023/09/22 11:06:04;;;;;;;0.50;0.50;;;;;;;;;;5030824;28;20709;-77
2023/09/22 11:08:31;;;;;;;0.73;0.73;;;;;;;;;;5033605;28;20286;-75
2023/09/22 11:10:59;;;;;;;0.73;0.73;;;;;;;;;;5034153;28;20698;-76
2023/09/22 11:13:27;;;;;;;0.88;0.60;;;;;;;;;;5033943;28;20210;-76
2023/09/22 11:15:59;;;;;;;0.70;0.70;;;;;;;;;;5032873;28;20218;-76
2023/09/22 11:18:28;;;;;;;1.25;0.80;;;;;;;;;;5025293;28;20200;-76
2023/09/22 11:20:58;;;;;;;0.80;0.80;;;;;;;;;;5033150;28;20230;-75
2023/09/22 11:23:26;;;;;;;0.82;0.82;;;;;;;;;;5033566;28;20206;-75
2023/09/22 11:25:58;;;;;;;0.80;0.80;;;;;;;;;;5031468;28;20206;-77
2023/09/22 11:28:26;;;;;;;0.93;0.70;;;;;;;;;;5019025;28;20195;-77
2023/09/22 11:30:54;;;;;;;0.77;0.75;;;;;;;;;;5021360;28;20710;-77
2023/09/22 11:33:21;;;;;;;0.70;0.70;;;;;;;;;;5023589;28;20226;-77
2023/09/22 11:35:52;;;;;;;0.63;0.63;;;;;;;;;;5034014;28;20230;-78
2023/09/22 11:38:27;;;;;;;0.65;0.65;;;;;;;;;;5030512;28;20203;-77
2023/09/22 11:41:14;;;;;;;0.98;0.75;;;;;;;;;;5026472;28;20222;-75
2023/09/22 11:43:42;;;;;;;0.80;0.80;;;;;;;;;;5030627;28;20207;-77
2023/09/22 11:46:11;;;;;;;1.00;0.90;;;;;;;;;;5033051;28;20203;-75
2023/09/22 11:48:57;;;;;;;1.10;1.00;;;;;;;;;;5031962;28;20203;-77
2023/09/22 11:51:41;;;;;;;1.02;1.02;;;;;;;;;;5025095;28;20219;-77
2023/09/22 11:54:09;;;;;;;1.00;0.90;;;;;;;;;;5029348;28;20229;-77
2023/09/22 11:56:36;;;;;;;1.13;1.10;;;;;;;;;;5029294;28;20268;-77
2023/09/22 11:59:06;;;;;;;1.20;1.10;;;;;;;;;;5023427;28;20598;-77
2023/09/22 12:01:34;;;;;;;1.17;1.08;;;;;;;;;;5032635;28;20215;-75
2023/09/22 12:04:01;;;;;;;0.88;0.80;;;;;;;;;;5019392;28;20277;-77
2023/09/22 12:06:28;;;;;;;3.22;1.40;;;;;;;;;;5026051;28;20207;-77
2023/09/22 12:08:58;;;;;;;1.10;1.00;;;;;;;;;;5031968;28;20684;-77
2023/09/22 12:11:28;;;;;;;1.50;1.33;;;;;;;;;;5033134;28;20566;-77
2023/09/22 12:13:56;;;;;;;1.02;0.90;;;;;;;;;;5026831;28;20198;-76
2023/09/22 12:16:23;;;;;;;0.98;0.98;;;;;;;;;;5032283;28;20670;-75
2023/09/22 12:18:50;;;;;;;1.27;0.80;;;;;;;;;;5030203;28;20443;-77
2023/09/22 12:21:17;;;;;;;0.98;0.90;;;;;;;;;;5027295;28;20258;-77
2023/09/22 12:23:45;;;;;;;0.68;0.68;;;;;;;;;;5026296;28;20198;-77
2023/09/22 12:26:12;;;;;;;0.63;0.63;;;;;;;;;;5029553;28;20651;-77
2023/09/22 12:28:42;;;;;;;0.77;0.77;;;;;;;;;;5029166;28;20256;-76
2023/09/22 12:31:09;;;;;;;1.00;1.00;;;;;;;;;;5031712;28;20726;-76
2023/09/22 12:33:40;;;;;;;0.90;0.90;;;;;;;;;;5025539;28;20648;-77
2023/09/22 12:36:07;;;;;;;1.50;0.90;;;;;;;;;;5030030;28;20203;-77
2023/09/22 12:38:35;;;;;;;1.00;1.00;;;;;;;;;;5026459;28;20199;-77
2023/09/22 12:41:04;;;;;;;1.60;1.50;;;;;;;;;;5025772;28;20768;-76
2023/09/22 12:43:31;;;;;;;3.20;1.60;;;;;;;;;;5032170;28;20603;-75
2023/09/22 12:45:58;;;;;;;0.80;0.80;;;;;;;;;;5029411;28;20293;-77
2023/09/22 12:48:25;;;;;;;0.95;0.95;;;;;;;;;;5032942;28;20205;-77
2023/09/22 12:50:54;;;;;;;1.13;0.90;;;;;;;;;;5030739;28;20301;-77
2023/09/22 12:53:21;;;;;;;1.95;1.30;;;;;;;;;;5021248;28;20199;-77
2023/09/22 12:55:53;;;;;;;2.15;1.00;;;;;;;;;;5025411;28;20215;-77
2023/09/22 12:58:20;;;;;;;1.10;0.98;;;;;;;;;;5012179;28;20222;-75
2023/09/22 13:00:49;;;;;;;1.40;1.23;;;;;;;;;;5022727;28;20222;-76
2023/09/22 13:03:16;;;;;;;1.10;1.10;;;;;;;;;;5031552;28;20630;-76
2023/09/22 13:05:43;;;;;;;1.33;1.15;;;;;;;;;;5030137;28;20207;-77
2023/09/22 13:08:12;;;;;;;1.08;1.00;;;;;;;;;;5030849;28;20206;-76
2023/09/22 13:10:40;;;;;;;1.08;1.00;;;;;;;;;;5031221;28;20666;-76
2023/09/22 13:13:11;;;;;;;1.20;1.17;;;;;;;;;;5031033;28;20549;-75
2023/09/22 13:15:44;;;;;;;1.77;1.00;;;;;;;;;;5029658;28;20747;-76
2023/09/22 13:18:15;;;;;;;1.30;1.10;;;;;;;;;;5029010;28;20222;-75
2023/09/22 13:20:43;;;;;;;1.42;1.35;;;;;;;;;;5027246;28;20210;-76
2023/09/22 13:23:11;;;;;;;2.75;1.30;;;;;;;;;;5044411;22;20316;-83
2023/09/22 13:25:39;;;;;;;1.02;0.98;;;;;;;;;;5042901;28;20309;-82
2023/09/22 13:28:08;;;;;;;0.90;0.90;;;;;;;;;;5039573;28;20211;-81
2023/09/22 13:30:42;;;;;;;1.85;1.00;;;;;;;;;;5044607;28;20202;-82
2023/09/22 13:33:11;;;;;;;0.75;0.75;;;;;;;;;;5041188;28;20206;-82
2023/09/22 13:35:38;;;;;;;0.85;0.80;;;;;;;;;;5041854;28;20226;-79
2023/09/22 13:38:06;;;;;;;1.10;0.88;;;;;;;;;;5046009;28;20223;-81
2023/09/22 13:40:34;;;;;;;0.77;0.77;;;;;;;;;;5051279;28;20728;-82
2023/09/22 13:43:04;;;;;;;0.90;0.90;;;;;;;;;;5046108;28;20199;-82
2023/09/22 13:45:38;;;;;;;1.85;0.60;;;;;;;;;;5051528;28;20317;-82
2023/09/22 13:48:06;;;;;;;1.23;0.93;;;;;;;;;;5040771;28;20217;-82
2023/09/22 13:50:33;;;;;;;0.88;0.77;;;;;;;;;;5049048;28;20207;-83
2023/09/22 13:53:01;;;;;;;1.02;0.70;;;;;;;;;;5044803;28;20220;-83
2023/09/22 13:55:28;;;;;;;2.22;0.82;;;;;;;;;;5050693;28;20226;-82
2023/09/22 13:57:55;;;;;;;0.95;0.70;;;;;;;;;;5042962;28;20254;-80
2023/09/22 14:00:22;;;;;;;0.77;0.60;;;;;;;;;;5054109;28;20296;-81
2023/09/22 14:02:51;;;;;;;0.80;0.80;;;;;;;;;;5052757;28;20252;-82
2023/09/22 14:05:18;;;;;;;1.00;0.90;;;;;;;;;;5054523;28;20248;-80
2023/09/22 14:07:47;;;;;;;1.15;0.80;;;;;;;;;;5046100;28;20210;-81
2023/09/22 14:10:14;;;;;;;1.00;0.90;;;;;;;;;;5049623;28;20669;-82
2023/09/22 14:12:41;;;;;;;1.23;1.13;;;;;;;;;;5051424;28;20594;-82
2023/09/22 14:15:09;;;;;;;0.80;0.80;;;;;;;;;;5045638;28;20231;-80
2023/09/22 14:17:37;;;;;;;0.88;0.88;;;;;;;;;;5047638;28;20226;-81
2023/09/22 14:20:05;;;;;;;1.38;1.02;;;;;;;;;;5047651;28;20222;-80
2023/09/22 14:22:33;;;;;;;1.75;0.90;;;;;;;;;;5050225;28;20237;-82
2023/09/22 14:25:00;;;;;;;1.00;0.77;;;;;;;;;;5049135;28;20225;-84
2023/09/22 14:27:27;;;;;;;0.88;0.80;;;;;;;;;;5048259;28;20252;-81
2023/09/22 14:29:55;;;;;;;0.98;0.80;;;;;;;;;;5042376;28;20210;-80
2023/09/22 14:32:22;;;;;;;0.98;0.98;;;;;;;;;;5037576;28;20261;-82
2023/09/22 14:34:54;;;;;;;1.23;1.20;;;;;;;;;;5045425;28;20576;-83
2023/09/22 14:37:21;;;;;;;1.40;0.80;;;;;;;;;;5035865;28;20210;-83
2023/09/22 14:39:49;;;;;;;2.30;1.58;;;;;;;;;;5045612;28;20202;-80
2023/09/22 14:42:16;;;;;;;1.80;1.60;;;;;;;;;;5044670;28;20206;-80
2023/09/22 14:44:43;;;;;;;1.50;1.40;;;;;;;;;;5053200;28;20222;-81
2023/09/22 14:47:10;;;;;;;0.70;0.70;;;;;;;;;;5050280;28;20199;-82
2023/09/22 14:49:38;;;;;;;0.95;0.80;;;;;;;;;;5052041;28;20233;-81
2023/09/22 14:52:05;;;;;;;5.60;3.28;;;;;;;;;;5050616;28;20253;-83